createdAt,value
2018-06-27T03:37:48.840Z,10
2018-06-27T03:42:10.022Z,10
2018-06-27T03:44:03.718Z,15
2018-06-27T03:45:27.632Z,15
2018-06-27T03:45:48.587Z,15
2018-06-27T05:50:00.943Z,20
2018-06-27T05:50:22.256Z,20
2018-06-27T05:50:43.032Z,20
2018-06-27T05:51:46.281Z,20
2018-06-27T05:52:06.960Z,20
2018-06-27T05:52:28.352Z,20
2018-06-27T05:53:21.615Z,20
2018-06-27T05:53:42.084Z,20
2018-06-27T05:56:59.570Z,20
2018-06-27T05:57:20.345Z,20
2018-06-27T05:57:40.747Z,20
2018-06-27T05:58:01.262Z,20
2018-06-27T05:58:22.448Z,20
2018-06-27T05:58:43.503Z,20
2018-06-27T05:59:04.268Z,20
2018-06-27T05:59:24.863Z,20
2018-06-27T05:59:45.877Z,20
2018-06-27T06:00:06.677Z,20
2018-06-27T06:00:27.655Z,20
2018-06-27T06:00:48.483Z,20
2018-06-27T06:01:09.278Z,20
2018-06-27T06:01:29.895Z,20
2018-06-27T06:01:50.641Z,20
2018-06-27T06:02:11.359Z,20
2018-06-27T06:02:31.854Z,20
2018-06-27T06:02:52.327Z,20
2018-06-27T06:03:12.853Z,20
2018-06-27T06:03:33.338Z,20
2018-06-27T06:03:54.113Z,20
2018-06-27T06:04:14.975Z,20
2018-06-27T06:04:36.034Z,20
2018-06-27T06:04:56.852Z,20
2018-06-27T06:05:17.440Z,20
2018-06-27T06:05:38.519Z,20
2018-06-27T06:05:59.196Z,20
2018-06-27T06:06:20.151Z,20
2018-06-27T06:06:40.718Z,20
2018-06-27T06:07:01.313Z,20
2018-06-27T06:07:21.905Z,20
2018-06-27T06:07:42.798Z,20
2018-06-27T06:08:03.837Z,20
2018-06-27T06:08:24.782Z,20
2018-06-27T06:08:45.668Z,20
2018-06-27T06:09:06.551Z,20
2018-06-27T06:09:27.409Z,20
2018-06-27T06:09:48.171Z,20
2018-06-27T06:10:08.978Z,20
2018-06-27T06:10:29.910Z,20
2018-06-27T06:10:50.697Z,20
2018-06-27T06:11:11.816Z,20
2018-06-27T06:11:33.083Z,20
2018-06-27T06:11:53.919Z,20
2018-06-27T06:12:14.698Z,20
2018-06-27T06:12:35.430Z,20
2018-06-27T06:12:56.330Z,20
2018-06-27T06:13:17.015Z,20
2018-06-27T06:13:38.030Z,20
2018-06-27T06:13:58.778Z,20
2018-06-27T06:14:19.466Z,20
2018-06-27T06:14:41.327Z,20
2018-06-27T06:15:02.085Z,20
2018-06-27T06:15:22.781Z,20
2018-06-27T06:15:43.530Z,20
2018-06-27T06:16:04.597Z,20
2018-06-27T06:16:25.452Z,20
2018-06-27T06:16:46.097Z,20
2018-06-27T06:17:06.854Z,20
2018-06-27T06:17:27.516Z,20
2018-06-27T06:17:48.464Z,20
2018-06-27T06:18:09.182Z,20
2018-06-27T06:18:30.280Z,20
2018-06-27T06:18:51.352Z,20
2018-06-27T06:19:12.199Z,20
2018-06-27T06:19:33.223Z,20
2018-06-27T06:19:54.223Z,20
2018-06-27T06:20:15.047Z,20
2018-06-27T06:20:35.850Z,20
2018-06-27T06:20:56.769Z,20
2018-06-27T06:21:17.677Z,20
2018-06-27T06:21:38.604Z,20
2018-06-27T06:21:59.889Z,20
2018-06-27T06:22:20.767Z,20
2018-06-27T06:22:41.483Z,20
2018-06-27T06:23:02.149Z,20
2018-06-27T06:23:23.483Z,20
2018-06-27T06:23:44.311Z,20
2018-06-27T06:24:05.171Z,20
2018-06-27T06:24:25.766Z,20
2018-06-27T06:24:46.832Z,20
2018-06-27T06:25:07.852Z,20
2018-06-27T06:25:29.072Z,20
2018-06-27T06:25:50.052Z,20
2018-06-27T06:26:11.204Z,20
2018-06-27T06:26:31.999Z,20
2018-06-27T06:26:53.433Z,20
2018-06-27T06:27:14.340Z,20
2018-06-27T06:27:35.294Z,20
2018-06-27T06:27:56.162Z,20
2018-06-27T06:28:16.981Z,20
2018-06-27T06:28:37.513Z,20
2018-06-27T06:28:58.253Z,20
2018-06-27T06:29:19.067Z,20
2018-06-27T06:29:39.622Z,20
2018-06-27T06:30:00.076Z,20
2018-06-27T06:30:20.745Z,20
2018-06-27T06:30:41.681Z,20
2018-06-27T06:31:02.317Z,20
2018-06-27T06:31:23.200Z,20
2018-06-27T06:31:43.826Z,25
2018-06-27T06:32:04.646Z,25
2018-06-27T06:32:25.843Z,25
2018-06-27T06:32:46.924Z,25
2018-06-27T06:33:07.870Z,25
2018-06-27T06:33:28.706Z,25
2018-06-27T06:33:49.513Z,25
2018-06-27T06:34:10.302Z,25
2018-06-27T06:34:31.090Z,20
2018-06-27T06:34:51.862Z,20
2018-06-27T06:35:12.572Z,20
2018-06-27T06:35:33.169Z,20
2018-06-27T06:35:53.665Z,20
2018-06-27T06:36:14.280Z,20
2018-06-27T06:36:34.979Z,25
2018-06-27T06:36:55.754Z,25
2018-06-27T06:37:16.668Z,25
2018-06-27T06:37:37.429Z,25
2018-06-27T06:37:58.464Z,25
2018-06-27T06:38:19.160Z,25
2018-06-27T06:38:39.911Z,25
2018-06-27T06:39:00.408Z,25
2018-06-27T06:39:20.996Z,25
2018-06-27T06:39:41.771Z,25
2018-06-27T06:40:02.616Z,25
2018-06-27T06:40:23.228Z,25
2018-06-27T06:40:43.788Z,25
2018-06-27T06:41:04.283Z,25
2018-06-27T06:41:24.733Z,25
2018-06-27T06:41:45.529Z,25
2018-06-27T06:42:06.243Z,25
2018-06-27T06:42:26.794Z,25
2018-06-27T06:42:47.551Z,25
2018-06-27T06:43:08.276Z,25
2018-06-27T06:43:29.544Z,25
2018-06-27T06:43:50.223Z,25
2018-06-27T06:44:11.130Z,25
2018-06-27T06:44:31.628Z,25
2018-06-27T06:44:52.143Z,25
2018-06-27T06:45:12.718Z,25
2018-06-27T06:45:33.286Z,25
2018-06-27T06:45:53.973Z,25
2018-06-27T06:46:14.716Z,25
2018-06-27T06:46:35.368Z,25
2018-06-27T06:46:55.852Z,25
2018-06-27T06:47:16.491Z,25
2018-06-27T06:47:37.021Z,25
2018-06-27T06:47:57.622Z,25
2018-06-27T06:48:18.250Z,25
2018-06-27T06:48:39.151Z,25
2018-06-27T06:48:59.744Z,25
2018-06-27T06:49:20.280Z,25
2018-06-27T06:49:41.012Z,25
2018-06-27T06:50:01.802Z,25
2018-06-27T06:50:22.330Z,25
2018-06-27T06:50:42.853Z,25
2018-06-27T06:51:03.420Z,25
2018-06-27T06:51:24.198Z,25
2018-06-27T06:51:44.914Z,25
2018-06-27T06:52:05.731Z,25
2018-06-27T06:52:26.476Z,25
2018-06-27T06:52:48.005Z,25
2018-06-27T06:53:08.549Z,25
2018-06-27T06:53:29.223Z,25
2018-06-27T06:53:50.535Z,25
2018-06-27T06:54:11.510Z,25
2018-06-27T06:54:32.300Z,25
2018-06-27T06:54:52.703Z,25
2018-06-27T06:55:13.199Z,25
2018-06-27T06:55:34.899Z,25
2018-06-27T06:55:55.922Z,25
2018-06-27T06:56:16.420Z,25
2018-06-27T06:56:37.005Z,25
2018-06-27T06:56:57.676Z,25
2018-06-27T06:57:18.604Z,25
2018-06-27T06:57:39.126Z,25
2018-06-27T06:57:59.746Z,25
2018-06-27T06:58:21.495Z,25
2018-06-27T06:58:43.406Z,25
2018-06-27T06:59:04.133Z,25
2018-06-27T06:59:24.704Z,25
2018-06-27T06:59:45.290Z,25
2018-06-27T07:00:06.212Z,25
2018-06-27T07:00:27.115Z,25
2018-06-27T07:00:47.934Z,25
2018-06-27T07:01:08.817Z,25
2018-06-27T07:01:29.538Z,25
2018-06-27T07:01:50.313Z,25
2018-06-27T07:02:11.373Z,25
2018-06-27T07:02:31.833Z,25
2018-06-27T07:02:52.581Z,30
2018-06-27T07:03:13.164Z,30
2018-06-27T07:03:33.889Z,30
2018-06-27T07:03:54.299Z,30
2018-06-27T07:04:15.022Z,30
2018-06-27T07:04:35.501Z,30
2018-06-27T07:04:56.077Z,30
2018-06-27T07:05:16.716Z,30
2018-06-27T07:05:37.179Z,30
2018-06-27T07:05:57.802Z,30
2018-06-27T07:06:18.287Z,30
2018-06-27T07:06:39.104Z,30
2018-06-27T07:07:00.368Z,30
2018-06-27T07:07:20.828Z,30
2018-06-27T07:07:41.294Z,30
2018-06-27T07:08:01.518Z,30
2018-06-27T07:08:22.279Z,30
2018-06-27T07:08:43.209Z,30
2018-06-27T07:09:03.780Z,30
2018-06-27T07:09:24.513Z,30
2018-06-27T07:09:45.538Z,30
2018-06-27T07:10:06.296Z,30
2018-06-27T07:10:27.051Z,30
2018-06-27T07:10:48.013Z,30
2018-06-27T07:11:09.185Z,30
2018-06-27T07:11:29.922Z,30
2018-06-27T07:11:50.567Z,30
2018-06-27T07:12:11.259Z,30
2018-06-27T07:12:32.082Z,30
2018-06-27T07:12:52.649Z,30
2018-06-27T07:13:13.091Z,30
2018-06-27T07:13:33.478Z,30
2018-06-27T07:13:54.242Z,30
2018-06-27T07:14:14.765Z,30
2018-06-27T07:14:35.308Z,30
2018-06-27T07:14:55.856Z,30
2018-06-27T07:15:17.377Z,30
2018-06-27T07:15:37.984Z,30
2018-06-27T07:15:58.561Z,30
2018-06-27T07:16:19.439Z,30
2018-06-27T07:16:40.187Z,30
2018-06-27T07:17:00.831Z,30
2018-06-27T07:17:21.431Z,30
2018-06-27T07:17:42.083Z,30
2018-06-27T07:18:02.577Z,30
2018-06-27T07:18:23.135Z,30
2018-06-27T07:18:43.620Z,30
2018-06-27T07:19:04.118Z,30
2018-06-27T07:19:24.809Z,30
2018-06-27T07:19:45.278Z,30
2018-06-27T07:20:06.299Z,30
2018-06-27T07:20:26.998Z,30
2018-06-27T07:20:47.569Z,30
2018-06-27T07:21:08.213Z,35
2018-06-27T07:21:28.851Z,35
2018-06-27T07:21:49.395Z,35
2018-06-27T07:22:09.850Z,30
2018-06-27T07:22:30.658Z,30
2018-06-27T07:22:51.329Z,30
2018-06-27T07:23:12.183Z,30
2018-06-27T07:23:32.991Z,30
2018-06-27T07:23:53.768Z,35
2018-06-27T07:24:14.509Z,35
2018-06-27T07:24:35.405Z,35
2018-06-27T07:24:55.894Z,35
2018-06-27T07:25:17.060Z,35
2018-06-27T07:25:37.625Z,35
2018-06-27T07:25:58.322Z,35
2018-06-27T07:26:19.039Z,35
2018-06-27T07:26:39.913Z,35
2018-06-27T07:27:00.551Z,35
2018-06-27T07:27:21.205Z,35
2018-06-27T07:27:41.856Z,30
2018-06-27T07:28:02.421Z,35
2018-06-27T07:28:23.110Z,35
2018-06-27T07:28:44.234Z,35
2018-06-27T07:29:04.685Z,35
2018-06-27T07:29:25.210Z,35
2018-06-27T07:29:45.695Z,30
2018-06-27T07:30:06.191Z,35
2018-06-27T07:30:26.817Z,35
2018-06-27T07:30:47.508Z,35
2018-06-27T07:31:08.375Z,35
2018-06-27T07:31:30.080Z,35
2018-06-27T07:31:50.534Z,25
2018-06-27T07:32:11.568Z,20
2018-06-27T07:32:32.554Z,20
2018-06-27T07:32:53.247Z,20
2018-06-27T07:33:13.888Z,20
2018-06-27T07:33:34.560Z,20
2018-06-27T07:33:55.231Z,20
2018-06-27T07:34:16.171Z,30
2018-06-27T07:34:36.940Z,30
2018-06-27T07:34:57.726Z,30
2018-06-27T07:35:18.170Z,35
2018-06-27T07:35:38.935Z,25
2018-06-27T07:35:59.947Z,20
2018-06-27T07:36:20.703Z,25
2018-06-27T07:36:42.970Z,30
2018-06-27T07:37:03.652Z,35
2018-06-27T07:37:24.147Z,20
2018-06-27T07:37:45.080Z,25
2018-06-27T07:38:06.592Z,25
2018-06-27T07:38:27.318Z,25
2018-06-27T07:38:48.304Z,30
2018-06-27T07:39:08.897Z,25
2018-06-27T07:39:29.954Z,25
2018-06-27T07:39:50.687Z,30
2018-06-27T07:40:11.490Z,35
2018-06-27T07:40:32.528Z,25
2018-06-27T07:40:53.387Z,35
2018-06-27T07:41:14.401Z,35
2018-06-27T07:41:35.018Z,40
2018-06-27T07:41:55.510Z,40
2018-06-27T07:42:16.009Z,40
2018-06-27T07:42:38.060Z,40
2018-06-27T07:42:58.704Z,45
2018-06-27T07:43:19.478Z,45
2018-06-27T07:43:40.242Z,40
2018-06-27T07:44:00.724Z,40
2018-06-27T07:44:21.625Z,40
2018-06-27T07:44:42.530Z,40
2018-06-27T07:45:03.420Z,40
2018-06-27T07:45:24.395Z,40
2018-06-27T07:45:45.259Z,35
2018-06-27T07:46:06.572Z,35
2018-06-27T07:46:27.223Z,35
2018-06-27T07:46:48.607Z,35
2018-06-27T07:47:09.529Z,35
2018-06-27T07:47:30.331Z,35
2018-06-27T07:47:50.799Z,35
2018-06-27T07:48:12.192Z,35
2018-06-27T07:48:32.826Z,35
2018-06-27T07:48:53.509Z,35
2018-06-27T07:49:14.343Z,35
2018-06-27T07:49:35.106Z,35
2018-06-27T07:49:55.823Z,35
2018-06-27T07:50:16.502Z,35
2018-06-27T07:50:37.173Z,35
2018-06-27T07:50:57.805Z,40
2018-06-27T07:51:18.602Z,35
2018-06-27T07:51:39.056Z,35
2018-06-27T07:51:59.708Z,35
2018-06-27T07:52:20.439Z,35
2018-06-27T07:52:41.388Z,35
2018-06-27T07:53:02.197Z,35
2018-06-27T07:53:22.716Z,35
2018-06-27T07:53:43.208Z,35
2018-06-27T07:54:03.717Z,40
2018-06-27T07:54:24.308Z,45
2018-06-27T07:54:44.781Z,45
2018-06-27T07:55:05.728Z,40
2018-06-27T07:55:26.940Z,40
2018-06-27T07:55:48.095Z,40
2018-06-27T07:56:09.062Z,40
2018-06-27T07:56:29.812Z,45
2018-06-27T07:56:50.712Z,45
2018-06-27T07:57:11.275Z,45
2018-06-27T07:57:32.680Z,45
2018-06-27T07:57:53.377Z,50
2018-06-27T07:58:14.329Z,45
2018-06-27T07:58:34.877Z,45
2018-06-27T07:58:55.731Z,40
2018-06-27T07:59:16.274Z,40
2018-06-27T07:59:36.750Z,40
2018-06-27T07:59:57.953Z,45
2018-06-27T08:00:18.606Z,50
2018-06-27T08:00:39.302Z,50
2018-06-27T08:01:00.132Z,50
2018-06-27T08:01:20.756Z,55
2018-06-27T08:01:41.461Z,55
2018-06-27T08:02:02.470Z,55
2018-06-27T08:02:23.140Z,55
2018-06-27T08:02:43.720Z,55
2018-06-27T08:03:04.400Z,55
2018-06-27T08:03:25.101Z,60
2018-06-27T08:03:45.956Z,60
2018-06-27T08:04:06.633Z,60
2018-06-27T08:04:27.768Z,60
2018-06-27T08:04:48.587Z,60
2018-06-27T08:05:09.837Z,50
2018-06-27T08:05:30.427Z,55
2018-06-27T08:05:51.688Z,55
2018-06-27T08:06:12.245Z,50
2018-06-27T08:06:32.707Z,45
2018-06-27T08:06:53.279Z,45
2018-06-27T08:07:14.264Z,45
2018-06-27T08:07:35.053Z,40
2018-06-27T08:07:55.597Z,35
2018-06-27T08:08:16.232Z,40
2018-06-27T08:08:36.777Z,30
2018-06-27T08:08:57.513Z,30
2018-06-27T08:09:18.239Z,30
2018-06-27T08:09:39.280Z,30
2018-06-27T08:10:00.085Z,40
2018-06-27T08:10:20.721Z,40
2018-06-27T08:10:41.498Z,40
2018-06-27T08:11:02.333Z,40
2018-06-27T08:11:22.805Z,40
2018-06-27T08:11:43.307Z,40
2018-06-27T08:12:03.903Z,40
2018-06-27T08:12:24.745Z,25
2018-06-27T08:12:45.748Z,25
2018-06-27T08:13:06.483Z,25
2018-06-27T08:13:27.067Z,30
2018-06-27T08:13:48.142Z,35
2018-06-27T08:14:08.702Z,30
2018-06-27T08:14:29.272Z,25
2018-06-27T08:14:49.972Z,25
2018-06-27T08:15:10.493Z,25
2018-06-27T08:15:31.095Z,25
2018-06-27T08:15:51.647Z,25
2018-06-27T08:16:12.023Z,25
2018-06-27T08:16:32.985Z,25
2018-06-27T08:16:53.567Z,25
2018-06-27T08:17:14.034Z,30
2018-06-27T08:17:34.500Z,30
2018-06-27T08:17:55.069Z,30
2018-06-27T08:18:15.641Z,30
2018-06-27T08:18:36.174Z,30
2018-06-27T08:18:57.632Z,30
2018-06-27T08:19:18.279Z,30
2018-06-27T08:19:38.934Z,35
2018-06-27T08:19:59.599Z,35
2018-06-27T08:20:20.334Z,35
2018-06-27T08:20:41.093Z,35
2018-06-27T08:21:01.878Z,35
2018-06-27T08:21:23.605Z,35
2018-06-27T08:21:44.535Z,35
2018-06-27T08:22:05.324Z,45
2018-06-27T08:22:25.916Z,40
2018-06-27T08:22:47.974Z,45
2018-06-27T08:23:08.568Z,45
2018-06-27T08:23:29.509Z,50
2018-06-27T08:23:50.256Z,55
2018-06-27T08:24:10.884Z,50
2018-06-27T08:24:31.413Z,35
2018-06-27T08:24:52.153Z,30
2018-06-27T08:25:12.903Z,30
2018-06-27T08:25:33.763Z,30
2018-06-27T08:25:54.395Z,40
2018-06-27T08:26:14.959Z,40
2018-06-27T08:26:35.695Z,40
2018-06-27T08:26:57.078Z,55
2018-06-27T08:27:17.701Z,40
2018-06-27T08:27:38.339Z,45
2018-06-27T08:27:59.040Z,40
2018-06-27T08:28:19.929Z,35
2018-06-27T08:28:40.515Z,40
2018-06-27T08:29:00.908Z,40
2018-06-27T08:29:21.742Z,40
2018-06-27T08:29:42.573Z,40
2018-06-27T08:30:03.652Z,45
2018-06-27T08:30:24.436Z,45
2018-06-27T08:30:45.181Z,45
2018-06-27T08:31:05.821Z,45
2018-06-27T08:31:26.607Z,45
2018-06-27T08:31:47.173Z,45
2018-06-27T08:32:08.032Z,50
2018-06-27T08:32:28.796Z,55
2018-06-27T08:32:49.488Z,60
2018-06-27T08:33:10.047Z,60
2018-06-27T08:33:31.153Z,60
2018-06-27T08:33:51.874Z,45
2018-06-27T08:34:12.695Z,60
2018-06-27T08:34:33.506Z,50
2018-06-27T08:34:54.086Z,55
2018-06-27T08:35:15.067Z,50
2018-06-27T08:35:35.697Z,50
2018-06-27T08:35:56.982Z,55
2018-06-27T08:36:17.765Z,55
2018-06-27T08:36:38.458Z,55
2018-06-27T08:36:59.842Z,60
2018-06-27T08:37:20.465Z,55
2018-06-27T08:37:41.344Z,55
2018-06-27T08:38:02.133Z,50
2018-06-27T08:38:22.999Z,45
2018-06-27T08:38:43.627Z,45
2018-06-27T08:39:04.337Z,40
2018-06-27T08:39:25.133Z,40
2018-06-27T08:39:45.589Z,50
2018-06-27T08:40:06.286Z,50
2018-06-27T08:40:26.999Z,55
2018-06-27T08:40:47.571Z,55
2018-06-27T08:41:08.294Z,60
2018-06-27T08:41:28.835Z,65
2018-06-27T08:41:49.515Z,65
2018-06-27T08:42:10.204Z,65
2018-06-27T08:42:30.751Z,65
2018-06-27T08:42:51.385Z,50
2018-06-27T08:43:12.001Z,50
2018-06-27T08:43:32.737Z,35
2018-06-27T08:43:53.711Z,35
2018-06-27T08:44:14.352Z,45
2018-06-27T08:44:34.859Z,45
2018-06-27T08:44:56.080Z,45
2018-06-27T08:45:17.413Z,45
2018-06-27T08:45:37.893Z,30
2018-06-27T08:45:58.376Z,40
2018-06-27T08:46:19.166Z,30
2018-06-27T08:46:39.805Z,40
2018-06-27T08:47:01.441Z,45
2018-06-27T08:47:21.990Z,45
2018-06-27T08:47:42.634Z,45
2018-06-27T08:48:03.140Z,45
2018-06-27T08:48:23.622Z,50
2018-06-27T08:48:44.117Z,50
2018-06-27T08:49:04.809Z,55
2018-06-27T08:49:25.783Z,55
2018-06-27T08:49:46.515Z,55
2018-06-27T08:50:07.439Z,55
2018-06-27T08:50:28.154Z,55
2018-06-27T08:50:49.236Z,55
2018-06-27T08:51:10.096Z,55
2018-06-27T08:51:31.647Z,50
2018-06-27T08:51:52.243Z,45
2018-06-27T08:52:12.814Z,45
2018-06-27T08:52:34.322Z,45
2018-06-27T08:52:55.083Z,40
2018-06-27T08:53:15.850Z,40
2018-06-27T08:53:36.560Z,40
2018-06-27T08:53:57.201Z,40
2018-06-27T08:54:17.849Z,40
2018-06-27T08:54:38.621Z,40
2018-06-27T08:54:59.955Z,40
2018-06-27T08:55:20.735Z,40
2018-06-27T08:55:41.576Z,40
2018-06-27T08:56:02.299Z,40
2018-06-27T08:56:22.850Z,40
2018-06-27T08:56:43.678Z,40
2018-06-27T08:57:04.601Z,40
2018-06-27T08:57:25.157Z,40
2018-06-27T08:57:46.008Z,45
2018-06-27T08:58:07.060Z,45
2018-06-27T08:58:27.590Z,45
2018-06-27T08:58:48.096Z,45
2018-06-27T08:59:08.771Z,50
2018-06-27T08:59:29.341Z,50
2018-06-27T08:59:50.048Z,45
2018-06-27T09:00:10.487Z,45
2018-06-27T09:00:31.402Z,40
2018-06-27T09:00:52.222Z,45
2018-06-27T09:01:12.821Z,45
2018-06-27T09:01:33.488Z,45
2018-06-27T09:01:54.222Z,45
2018-06-27T09:02:14.870Z,45
2018-06-27T09:02:35.830Z,50
2018-06-27T09:02:56.684Z,55
2018-06-27T09:03:18.000Z,50
2018-06-27T09:03:38.857Z,50
2018-06-27T09:03:59.541Z,50
2018-06-27T09:04:20.024Z,55
2018-06-27T09:04:40.379Z,60
2018-06-27T09:05:01.037Z,65
2018-06-27T09:05:21.461Z,65
2018-06-27T09:05:41.889Z,55
2018-06-27T09:06:02.539Z,50
2018-06-27T09:06:22.975Z,50
2018-06-27T09:06:43.579Z,50
2018-06-27T09:07:05.010Z,50
2018-06-27T09:07:25.604Z,50
2018-06-27T09:07:46.526Z,50
2018-06-27T09:08:07.394Z,55
2018-06-27T09:08:27.934Z,55
2018-06-27T09:08:48.639Z,55
2018-06-27T09:09:09.313Z,60
2018-06-27T09:09:30.558Z,45
2018-06-27T09:09:51.018Z,45
2018-06-27T09:10:11.591Z,45
2018-06-27T09:10:31.875Z,45
2018-06-27T09:10:52.382Z,50
2018-06-27T09:11:13.521Z,60
2018-06-27T09:11:33.958Z,45
2018-06-27T09:11:54.572Z,50
2018-06-27T09:12:14.969Z,60
2018-06-27T09:12:35.343Z,65
2018-06-27T09:12:56.039Z,70
2018-06-27T09:13:16.600Z,75
2018-06-27T09:13:36.985Z,75
2018-06-27T09:13:57.430Z,75
2018-06-27T09:14:17.841Z,75
2018-06-27T09:14:38.465Z,70
2018-06-27T09:14:58.928Z,70
2018-06-27T09:15:20.174Z,70
2018-06-27T09:15:40.771Z,65
2018-06-27T09:16:01.422Z,60
2018-06-27T09:16:21.877Z,60
2018-06-27T09:16:42.598Z,60
2018-06-27T09:17:03.137Z,65
2018-06-27T09:17:23.570Z,70
2018-06-27T09:17:44.258Z,70
2018-06-27T09:18:04.654Z,70
2018-06-27T09:18:25.169Z,70
2018-06-27T09:18:45.937Z,70
2018-06-27T09:19:06.497Z,70
2018-06-27T09:19:26.927Z,70
2018-06-27T09:19:47.467Z,65
2018-06-27T09:20:08.257Z,45
2018-06-27T09:20:30.506Z,45
2018-06-27T09:20:51.003Z,45
2018-06-27T09:21:11.750Z,45
2018-06-27T09:21:32.540Z,45
2018-06-27T09:21:53.513Z,65
2018-06-27T09:22:14.304Z,50
2018-06-27T09:22:34.910Z,45
2018-06-27T09:22:55.412Z,45
2018-06-27T09:23:15.748Z,45
2018-06-27T09:23:36.402Z,55
2018-06-27T09:23:56.894Z,60
2018-06-27T09:24:17.243Z,50
2018-06-27T09:24:37.685Z,50
2018-06-27T09:24:58.150Z,50
2018-06-27T09:25:19.582Z,50
2018-06-27T09:25:39.981Z,60
2018-06-27T09:26:00.678Z,70
2018-06-27T09:26:21.504Z,55
2018-06-27T09:26:42.187Z,55
2018-06-27T09:27:02.801Z,70
2018-06-27T09:27:23.206Z,80
2018-06-27T09:27:43.430Z,65
2018-06-27T09:28:04.028Z,70
2018-06-27T09:28:24.639Z,80
2018-06-27T09:28:45.373Z,80
2018-06-27T09:29:05.818Z,75
2018-06-27T09:29:26.653Z,65
2018-06-27T09:29:48.082Z,55
2018-06-27T09:30:08.715Z,50
2018-06-27T09:30:29.510Z,65
2018-06-27T09:30:49.885Z,65
2018-06-27T09:31:10.438Z,75
2018-06-27T09:31:31.531Z,70
2018-06-27T09:31:52.011Z,70
2018-06-27T09:32:12.633Z,75
2018-06-27T09:32:33.068Z,75
2018-06-27T09:32:53.376Z,75
2018-06-27T09:33:14.546Z,75
2018-06-27T09:33:35.182Z,75
2018-06-27T09:33:55.836Z,75
2018-06-27T09:34:16.298Z,80
2018-06-27T09:34:36.896Z,80
2018-06-27T09:34:57.397Z,80
2018-06-27T09:35:18.750Z,80
2018-06-27T09:35:40.014Z,80
2018-06-27T09:36:00.755Z,80
2018-06-27T09:36:21.690Z,80
2018-06-27T09:36:42.414Z,55
2018-06-27T09:37:03.493Z,55
2018-06-27T09:37:24.120Z,50
2018-06-27T09:37:44.636Z,50
2018-06-27T09:38:05.432Z,50
2018-06-27T09:38:26.200Z,50
2018-06-27T09:38:46.625Z,70
2018-06-27T09:39:07.273Z,65
2018-06-27T09:39:27.743Z,65
2018-06-27T09:39:48.437Z,65
2018-06-27T09:40:08.990Z,65
2018-06-27T09:40:29.658Z,65
2018-06-27T09:40:50.073Z,60
2018-06-27T09:41:10.518Z,55
2018-06-27T09:41:31.075Z,60
2018-06-27T09:41:51.717Z,60
2018-06-27T09:42:12.387Z,60
2018-06-27T09:42:33.077Z,60
2018-06-27T09:42:53.744Z,60
2018-06-27T09:43:14.524Z,45
2018-06-27T09:43:35.196Z,45
2018-06-27T09:43:55.694Z,45
2018-06-27T09:44:16.167Z,60
2018-06-27T09:44:36.853Z,60
2018-06-27T09:44:57.401Z,60
2018-06-27T09:45:18.068Z,60
2018-06-27T09:45:38.652Z,45
2018-06-27T09:45:59.428Z,45
2018-06-27T09:46:21.095Z,45
2018-06-27T09:46:41.909Z,60
2018-06-27T09:47:02.542Z,45
2018-06-27T09:47:22.972Z,60
2018-06-27T09:47:43.785Z,50
2018-06-27T09:48:04.484Z,55
2018-06-27T09:48:25.235Z,50
2018-06-27T09:48:45.869Z,50
2018-06-27T09:49:06.698Z,45
2018-06-27T09:49:27.165Z,45
2018-06-27T09:49:47.688Z,40
2018-06-27T09:50:08.563Z,40
2018-06-27T09:50:29.308Z,35
2018-06-27T09:50:49.796Z,35
2018-06-27T09:51:10.419Z,35
2018-06-27T09:51:31.029Z,45
2018-06-27T09:51:52.592Z,55
2018-06-27T09:52:13.400Z,55
2018-06-27T09:52:34.110Z,55
2018-06-27T09:52:54.843Z,55
2018-06-27T09:53:15.539Z,55
2018-06-27T09:53:36.095Z,50
2018-06-27T09:53:56.974Z,50
2018-06-27T09:54:17.868Z,45
2018-06-27T09:54:39.555Z,50
2018-06-27T09:55:00.095Z,45
2018-06-27T09:55:20.735Z,45
2018-06-27T09:55:41.235Z,45
2018-06-27T09:56:01.795Z,45
2018-06-27T09:56:22.244Z,45
2018-06-27T09:56:42.854Z,45
2018-06-27T09:57:03.489Z,45
2018-06-27T09:57:24.223Z,45
2018-06-27T09:57:45.229Z,45
2018-06-27T09:58:05.790Z,45
2018-06-27T09:58:26.258Z,45
2018-06-27T09:58:46.671Z,45
2018-06-27T09:59:07.185Z,45
2018-06-27T09:59:27.699Z,45
2018-06-27T09:59:48.227Z,45
2018-06-27T10:00:08.551Z,45
2018-06-27T10:00:29.010Z,45
2018-06-27T10:00:49.471Z,50
2018-06-27T10:01:09.969Z,45
2018-06-27T10:01:30.440Z,40
2018-06-27T10:01:50.924Z,50
2018-06-27T10:02:11.826Z,35
2018-06-27T10:02:32.299Z,40
2018-06-27T10:02:53.150Z,45
2018-06-27T10:03:13.616Z,50
2018-06-27T10:03:34.194Z,55
2018-06-27T10:03:55.041Z,60
2018-06-27T10:04:15.845Z,55
2018-06-27T10:04:36.714Z,55
2018-06-27T10:04:57.479Z,55
2018-06-27T10:05:18.392Z,30
2018-06-27T10:05:39.182Z,30
2018-06-27T10:05:59.769Z,30
2018-06-27T10:06:21.126Z,30
2018-06-27T10:06:41.873Z,30
2018-06-27T10:07:02.779Z,30
2018-06-27T10:07:23.962Z,25
2018-06-27T10:07:44.618Z,25
2018-06-27T10:08:05.217Z,30
2018-06-27T10:08:25.843Z,35
2018-06-27T10:08:46.648Z,30
2018-06-27T10:09:07.327Z,30
2018-06-27T10:09:28.089Z,35
2018-06-27T10:09:48.522Z,50
2018-06-27T10:10:09.084Z,50
2018-06-27T10:10:30.627Z,50
2018-06-27T10:10:51.108Z,50
2018-06-27T10:11:11.544Z,50
2018-06-27T10:11:32.254Z,55
2018-06-27T10:11:52.855Z,55
2018-06-27T10:12:13.794Z,60
2018-06-27T10:12:34.343Z,60
2018-06-27T10:12:54.940Z,60
2018-06-27T10:13:15.456Z,40
2018-06-27T10:13:35.922Z,40
2018-06-27T10:13:56.594Z,35
2018-06-27T10:14:17.763Z,50
2018-06-27T10:14:38.453Z,65
2018-06-27T10:14:59.246Z,65
2018-06-27T10:15:20.177Z,65
2018-06-27T10:15:40.763Z,70
2018-06-27T10:16:01.676Z,70
2018-06-27T10:16:22.526Z,55
2018-06-27T10:16:44.256Z,75
2018-06-27T10:17:05.076Z,75
2018-06-27T10:17:25.912Z,70
2018-06-27T10:17:46.500Z,70
2018-06-27T10:18:07.256Z,65
2018-06-27T10:18:28.011Z,65
2018-06-27T10:18:48.729Z,60
2018-06-27T10:19:09.603Z,55
2018-06-27T10:19:30.228Z,55
2018-06-27T10:19:51.665Z,55
2018-06-27T10:20:11.956Z,55
2018-06-27T10:20:32.413Z,60
2018-06-27T10:20:53.099Z,60
2018-06-27T10:21:14.021Z,60
2018-06-27T10:21:34.643Z,60
2018-06-27T10:21:55.495Z,60
2018-06-27T10:22:16.159Z,55
2018-06-27T10:22:36.585Z,50
2018-06-27T10:22:57.096Z,65
2018-06-27T10:23:18.031Z,65
2018-06-27T10:23:38.638Z,65
2018-06-27T10:23:59.793Z,65
2018-06-27T10:24:20.549Z,65
2018-06-27T10:24:41.104Z,65
2018-06-27T10:25:02.127Z,65
2018-06-27T10:25:22.759Z,70
2018-06-27T10:25:43.471Z,65
2018-06-27T10:26:04.091Z,70
2018-06-27T10:26:24.683Z,70
2018-06-27T10:26:45.366Z,70
2018-06-27T10:27:05.970Z,70
2018-06-27T10:27:26.590Z,75
2018-06-27T10:27:47.171Z,75
2018-06-27T10:28:07.663Z,70
2018-06-27T10:28:28.246Z,70
2018-06-27T10:28:49.062Z,65
2018-06-27T10:29:09.855Z,65
2018-06-27T10:29:30.380Z,60
2018-06-27T10:29:50.871Z,60
2018-06-27T10:30:11.669Z,60
2018-06-27T10:30:32.436Z,55
2018-06-27T10:30:53.053Z,55
2018-06-27T10:31:13.626Z,55
2018-06-27T10:31:34.106Z,55
2018-06-27T10:31:54.720Z,60
2018-06-27T10:32:15.413Z,60
2018-06-27T10:32:35.933Z,60
2018-06-27T10:32:57.073Z,60
2018-06-27T10:33:17.628Z,60
2018-06-27T10:33:38.014Z,60
2018-06-27T10:33:58.807Z,65
2018-06-27T10:34:19.834Z,65
2018-06-27T10:34:40.427Z,70
2018-06-27T10:35:01.111Z,70
2018-06-27T10:35:21.760Z,75
2018-06-27T10:35:42.271Z,75
2018-06-27T10:36:03.995Z,55
2018-06-27T10:36:24.922Z,55
2018-06-27T10:36:45.555Z,50
2018-06-27T10:37:06.566Z,55
2018-06-27T10:37:27.275Z,55
2018-06-27T10:37:48.185Z,55
2018-06-27T10:38:08.736Z,80
2018-06-27T10:38:29.452Z,60
2018-06-27T10:38:50.298Z,60
2018-06-27T10:39:11.070Z,55
2018-06-27T10:39:31.675Z,55
2018-06-27T10:39:52.423Z,55
2018-06-27T10:40:12.959Z,55
2018-06-27T10:40:33.426Z,75
2018-06-27T10:40:54.172Z,70
2018-06-27T10:41:14.553Z,70
2018-06-27T10:41:35.208Z,70
2018-06-27T10:41:55.903Z,70
2018-06-27T10:42:16.502Z,70
2018-06-27T10:42:37.208Z,75
2018-06-27T10:42:57.812Z,75
2018-06-27T10:43:18.452Z,75
2018-06-27T10:43:39.080Z,75
2018-06-27T10:43:59.841Z,70
2018-06-27T10:44:20.584Z,70
2018-06-27T10:44:41.443Z,65
2018-06-27T10:45:02.849Z,65
2018-06-27T10:45:24.105Z,70
2018-06-27T10:45:44.523Z,65
2018-06-27T10:46:05.194Z,65
2018-06-27T10:46:26.065Z,65
2018-06-27T10:46:46.617Z,50
2018-06-27T10:47:07.052Z,45
2018-06-27T10:47:27.738Z,45
2018-06-27T10:47:48.609Z,45
2018-06-27T10:48:09.734Z,60